sensor_id;sensor_type;location;lat;lon;timestamp;temperature;humidity
16392;DHT22;8305;-33.882;151.134;2022-10-22T00:01:06;21.60;99.90
16392;DHT22;8305;-33.882;151.134;2022-10-22T00:03:37;21.60;99.90
16392;DHT22;8305;-33.882;151.134;2022-10-22T00:06:08;21.60;99.90
16392;DHT22;8305;-33.882;151.134;2022-10-22T00:08:39;21.70;99.90
16392;DHT22;8305;-33.882;151.134;2022-10-22T00:11:11;21.70;99.90
16392;DHT22;8305;-33.882;151.134;2022-10-22T00:13:45;21.80;99.90
16392;DHT22;8305;-33.882;151.134;2022-10-22T00:16:16;21.80;99.90
16392;DHT22;8305;-33.882;151.134;2022-10-22T00:18:47;21.90;99.90
16392;DHT22;8305;-33.882;151.134;2022-10-22T00:21:18;21.90;99.90
16392;DHT22;8305;-33.882;151.134;2022-10-22T00:23:49;22.20;99.90
16392;DHT22;8305;-33.882;151.134;2022-10-22T00:26:20;22.50;99.90
16392;DHT22;8305;-33.882;151.134;2022-10-22T00:28:53;22.80;99.90
16392;DHT22;8305;-33.882;151.134;2022-10-22T00:31:24;23.20;99.90
16392;DHT22;8305;-33.882;151.134;2022-10-22T00:33:55;23.50;99.90
16392;DHT22;8305;-33.882;151.134;2022-10-22T00:36:26;23.90;99.90
16392;DHT22;8305;-33.882;151.134;2022-10-22T00:38:57;24.00;99.90
16392;DHT22;8305;-33.882;151.134;2022-10-22T00:41:28;24.10;99.90
16392;DHT22;8305;-33.882;151.134;2022-10-22T00:44:02;24.20;99.90
16392;DHT22;8305;-33.882;151.134;2022-10-22T00:46:33;24.20;99.90
16392;DHT22;8305;-33.882;151.134;2022-10-22T00:49:04;24.30;99.90
16392;DHT22;8305;-33.882;151.134;2022-10-22T00:51:36;24.40;99.90
16392;DHT22;8305;-33.882;151.134;2022-10-22T00:54:07;24.50;99.90
16392;DHT22;8305;-33.882;151.134;2022-10-22T00:56:38;24.60;99.90
16392;DHT22;8305;-33.882;151.134;2022-10-22T00:59:13;24.80;99.90
16392;DHT22;8305;-33.882;151.134;2022-10-22T01:01:45;24.80;99.90
16392;DHT22;8305;-33.882;151.134;2022-10-22T01:04:17;24.90;99.90
16392;DHT22;8305;-33.882;151.134;2022-10-22T01:06:48;24.90;99.90
16392;DHT22;8305;-33.882;151.134;2022-10-22T01:09:23;25.00;99.90
16392;DHT22;8305;-33.882;151.134;2022-10-22T01:12:03;25.20;99.90
16392;DHT22;8305;-33.882;151.134;2022-10-22T01:14:48;25.30;99.90
16392;DHT22;8305;-33.882;151.134;2022-10-22T01:17:27;25.30;99.90
16392;DHT22;8305;-33.882;151.134;2022-10-22T01:20:07;25.40;99.90
16392;DHT22;8305;-33.882;151.134;2022-10-22T01:22:41;25.40;99.90
16392;DHT22;8305;-33.882;151.134;2022-10-22T01:25:18;25.60;99.90
16392;DHT22;8305;-33.882;151.134;2022-10-22T01:27:57;25.90;99.90
16392;DHT22;8305;-33.882;151.134;2022-10-22T01:30:34;25.80;99.90
16392;DHT22;8305;-33.882;151.134;2022-10-22T01:33:11;25.70;99.90
16392;DHT22;8305;-33.882;151.134;2022-10-22T01:35:46;25.70;99.90
16392;DHT22;8305;-33.882;151.134;2022-10-22T01:38:19;25.80;99.90
16392;DHT22;8305;-33.882;151.134;2022-10-22T01:40:51;25.90;99.90
16392;DHT22;8305;-33.882;151.134;2022-10-22T01:43:23;25.90;99.90
16392;DHT22;8305;-33.882;151.134;2022-10-22T01:45:58;26.00;99.90
16392;DHT22;8305;-33.882;151.134;2022-10-22T01:48:37;26.10;99.90
16392;DHT22;8305;-33.882;151.134;2022-10-22T01:51:31;26.10;99.90
16392;DHT22;8305;-33.882;151.134;2022-10-22T01:54:11;25.90;99.90
16392;DHT22;8305;-33.882;151.134;2022-10-22T01:56:55;25.60;99.90
16392;DHT22;8305;-33.882;151.134;2022-10-22T01:59:37;25.40;99.90
16392;DHT22;8305;-33.882;151.134;2022-10-22T02:02:23;25.20;99.90
16392;DHT22;8305;-33.882;151.134;2022-10-22T02:04:59;24.90;99.90
16392;DHT22;8305;-33.882;151.134;2022-10-22T02:07:40;24.70;99.90
16392;DHT22;8305;-33.882;151.134;2022-10-22T02:10:13;24.70;99.90
16392;DHT22;8305;-33.882;151.134;2022-10-22T02:12:45;24.60;99.90
16392;DHT22;8305;-33.882;151.134;2022-10-22T02:15:19;24.60;99.90
16392;DHT22;8305;-33.882;151.134;2022-10-22T02:17:54;24.60;99.90
16392;DHT22;8305;-33.882;151.134;2022-10-22T02:20:30;24.60;99.90
16392;DHT22;8305;-33.882;151.134;2022-10-22T02:23:02;24.50;99.90
16392;DHT22;8305;-33.882;151.134;2022-10-22T02:25:35;24.40;99.90
16392;DHT22;8305;-33.882;151.134;2022-10-22T02:28:14;24.30;99.90
16392;DHT22;8305;-33.882;151.134;2022-10-22T02:30:50;24.20;99.90
16392;DHT22;8305;-33.882;151.134;2022-10-22T02:33:27;24.20;99.90
16392;DHT22;8305;-33.882;151.134;2022-10-22T02:35:58;24.10;99.90
16392;DHT22;8305;-33.882;151.134;2022-10-22T02:38:31;24.00;99.90
16392;DHT22;8305;-33.882;151.134;2022-10-22T02:41:04;23.90;99.90
16392;DHT22;8305;-33.882;151.134;2022-10-22T02:43:40;23.80;99.90
16392;DHT22;8305;-33.882;151.134;2022-10-22T02:46:12;23.60;99.90
16392;DHT22;8305;-33.882;151.134;2022-10-22T02:48:45;23.70;99.90
16392;DHT22;8305;-33.882;151.134;2022-10-22T02:51:16;23.70;99.90
16392;DHT22;8305;-33.882;151.134;2022-10-22T02:53:47;23.70;99.90
16392;DHT22;8305;-33.882;151.134;2022-10-22T02:56:18;23.80;99.90
16392;DHT22;8305;-33.882;151.134;2022-10-22T02:58:48;23.80;99.90
16392;DHT22;8305;-33.882;151.134;2022-10-22T03:01:19;23.90;99.90
16392;DHT22;8305;-33.882;151.134;2022-10-22T03:03:52;24.10;99.90
16392;DHT22;8305;-33.882;151.134;2022-10-22T03:06:23;24.30;99.90
16392;DHT22;8305;-33.882;151.134;2022-10-22T03:08:54;24.40;99.90
16392;DHT22;8305;-33.882;151.134;2022-10-22T03:11:24;24.40;99.90
16392;DHT22;8305;-33.882;151.134;2022-10-22T03:13:55;24.30;99.90
16392;DHT22;8305;-33.882;151.134;2022-10-22T03:16:26;24.10;99.90
16392;DHT22;8305;-33.882;151.134;2022-10-22T03:18:59;24.00;99.90
16392;DHT22;8305;-33.882;151.134;2022-10-22T03:21:33;23.80;99.90
16392;DHT22;8305;-33.882;151.134;2022-10-22T03:24:08;23.70;99.90
16392;DHT22;8305;-33.882;151.134;2022-10-22T03:26:41;23.70;99.90
16392;DHT22;8305;-33.882;151.134;2022-10-22T03:29:13;23.60;99.90
16392;DHT22;8305;-33.882;151.134;2022-10-22T03:31:45;23.50;99.90
16392;DHT22;8305;-33.882;151.134;2022-10-22T03:34:17;23.40;99.90
16392;DHT22;8305;-33.882;151.134;2022-10-22T03:36:49;23.30;99.90
16392;DHT22;8305;-33.882;151.134;2022-10-22T03:39:22;23.20;99.90
16392;DHT22;8305;-33.882;151.134;2022-10-22T03:41:53;23.10;99.90
16392;DHT22;8305;-33.882;151.134;2022-10-22T03:44:25;23.00;99.90
16392;DHT22;8305;-33.882;151.134;2022-10-22T03:46:56;22.90;99.90
16392;DHT22;8305;-33.882;151.134;2022-10-22T03:49:29;22.90;99.90
16392;DHT22;8305;-33.882;151.134;2022-10-22T03:52:05;22.90;99.90
16392;DHT22;8305;-33.882;151.134;2022-10-22T03:54:37;22.80;99.90
16392;DHT22;8305;-33.882;151.134;2022-10-22T03:57:09;22.80;99.90
16392;DHT22;8305;-33.882;151.134;2022-10-22T03:59:42;22.80;99.90
16392;DHT22;8305;-33.882;151.134;2022-10-22T04:02:13;22.80;99.90
16392;DHT22;8305;-33.882;151.134;2022-10-22T04:04:46;22.70;99.90
16392;DHT22;8305;-33.882;151.134;2022-10-22T04:07:17;22.60;99.90
16392;DHT22;8305;-33.882;151.134;2022-10-22T04:09:48;22.50;99.90
16392;DHT22;8305;-33.882;151.134;2022-10-22T04:12:18;22.40;99.90
16392;DHT22;8305;-33.882;151.134;2022-10-22T04:14:49;22.40;99.90
16392;DHT22;8305;-33.882;151.134;2022-10-22T04:17:20;22.30;99.90
16392;DHT22;8305;-33.882;151.134;2022-10-22T04:19:53;22.30;99.90
16392;DHT22;8305;-33.882;151.134;2022-10-22T04:22:24;22.10;99.90
16392;DHT22;8305;-33.882;151.134;2022-10-22T04:24:55;22.10;99.90
16392;DHT22;8305;-33.882;151.134;2022-10-22T04:27:28;22.10;99.90
16392;DHT22;8305;-33.882;151.134;2022-10-22T04:29:59;22.10;99.90
16392;DHT22;8305;-33.882;151.134;2022-10-22T04:32:30;22.10;99.90
16392;DHT22;8305;-33.882;151.134;2022-10-22T04:35:03;22.20;99.90
16392;DHT22;8305;-33.882;151.134;2022-10-22T04:37:34;22.20;99.90
16392;DHT22;8305;-33.882;151.134;2022-10-22T04:40:06;22.20;99.90
16392;DHT22;8305;-33.882;151.134;2022-10-22T04:42:37;22.30;99.90
16392;DHT22;8305;-33.882;151.134;2022-10-22T04:45:09;22.30;99.90
16392;DHT22;8305;-33.882;151.134;2022-10-22T04:47:40;22.30;99.90
16392;DHT22;8305;-33.882;151.134;2022-10-22T04:50:13;22.30;99.90
16392;DHT22;8305;-33.882;151.134;2022-10-22T04:52:44;22.40;99.90
16392;DHT22;8305;-33.882;151.134;2022-10-22T04:55:15;22.30;99.90
16392;DHT22;8305;-33.882;151.134;2022-10-22T04:57:45;22.30;99.90
16392;DHT22;8305;-33.882;151.134;2022-10-22T05:00:17;22.20;99.90
16392;DHT22;8305;-33.882;151.134;2022-10-22T05:02:49;22.10;99.90
16392;DHT22;8305;-33.882;151.134;2022-10-22T05:05:22;22.10;99.90
16392;DHT22;8305;-33.882;151.134;2022-10-22T05:07:53;22.10;99.90
16392;DHT22;8305;-33.882;151.134;2022-10-22T05:10:24;22.10;99.90
16392;DHT22;8305;-33.882;151.134;2022-10-22T05:12:55;22.10;99.90
16392;DHT22;8305;-33.882;151.134;2022-10-22T05:15:26;22.10;99.90
16392;DHT22;8305;-33.882;151.134;2022-10-22T05:17:57;22.20;99.90
16392;DHT22;8305;-33.882;151.134;2022-10-22T05:20:30;22.30;99.90
16392;DHT22;8305;-33.882;151.134;2022-10-22T05:23:01;22.40;99.90
16392;DHT22;8305;-33.882;151.134;2022-10-22T05:25:32;22.50;99.90
16392;DHT22;8305;-33.882;151.134;2022-10-22T05:28:06;22.50;99.90
16392;DHT22;8305;-33.882;151.134;2022-10-22T05:30:37;22.60;99.90
16392;DHT22;8305;-33.882;151.134;2022-10-22T05:33:08;22.60;99.90
16392;DHT22;8305;-33.882;151.134;2022-10-22T05:35:41;22.60;99.90
16392;DHT22;8305;-33.882;151.134;2022-10-22T05:38:11;22.60;99.90
16392;DHT22;8305;-33.882;151.134;2022-10-22T05:40:43;22.50;99.90
16392;DHT22;8305;-33.882;151.134;2022-10-22T05:43:14;22.50;99.90
16392;DHT22;8305;-33.882;151.134;2022-10-22T05:45:44;22.50;99.90
16392;DHT22;8305;-33.882;151.134;2022-10-22T05:48:15;22.50;99.90
16392;DHT22;8305;-33.882;151.134;2022-10-22T05:50:48;22.40;99.90
16392;DHT22;8305;-33.882;151.134;2022-10-22T05:53:19;22.40;99.90
16392;DHT22;8305;-33.882;151.134;2022-10-22T05:55:50;22.30;99.90
16392;DHT22;8305;-33.882;151.134;2022-10-22T05:58:21;22.30;99.90
16392;DHT22;8305;-33.882;151.134;2022-10-22T06:00:53;22.20;99.90
16392;DHT22;8305;-33.882;151.134;2022-10-22T06:03:24;22.10;99.90
16392;DHT22;8305;-33.882;151.134;2022-10-22T06:05:59;22.00;99.90
16392;DHT22;8305;-33.882;151.134;2022-10-22T06:08:30;22.00;99.90
16392;DHT22;8305;-33.882;151.134;2022-10-22T06:11:01;21.90;99.90
16392;DHT22;8305;-33.882;151.134;2022-10-22T06:13:32;21.90;99.90
16392;DHT22;8305;-33.882;151.134;2022-10-22T06:16:03;21.90;99.90
16392;DHT22;8305;-33.882;151.134;2022-10-22T06:18:34;21.90;99.90
16392;DHT22;8305;-33.882;151.134;2022-10-22T06:21:08;21.90;99.90
16392;DHT22;8305;-33.882;151.134;2022-10-22T06:23:40;21.90;99.90
16392;DHT22;8305;-33.882;151.134;2022-10-22T06:26:11;22.00;99.90
16392;DHT22;8305;-33.882;151.134;2022-10-22T06:28:44;22.00;99.90
16392;DHT22;8305;-33.882;151.134;2022-10-22T06:31:15;22.00;99.90
16392;DHT22;8305;-33.882;151.134;2022-10-22T06:33:46;21.90;99.90
16392;DHT22;8305;-33.882;151.134;2022-10-22T06:36:21;22.00;99.90
16392;DHT22;8305;-33.882;151.134;2022-10-22T06:39:00;22.00;99.90
16392;DHT22;8305;-33.882;151.134;2022-10-22T06:41:32;22.00;99.90
16392;DHT22;8305;-33.882;151.134;2022-10-22T06:44:03;22.00;99.90
16392;DHT22;8305;-33.882;151.134;2022-10-22T06:46:34;22.00;99.90
16392;DHT22;8305;-33.882;151.134;2022-10-22T06:49:04;22.00;99.90
16392;DHT22;8305;-33.882;151.134;2022-10-22T06:51:37;22.00;99.90
16392;DHT22;8305;-33.882;151.134;2022-10-22T06:54:08;22.00;99.90
16392;DHT22;8305;-33.882;151.134;2022-10-22T06:56:39;21.90;99.90
16392;DHT22;8305;-33.882;151.134;2022-10-22T06:59:09;21.90;99.90
16392;DHT22;8305;-33.882;151.134;2022-10-22T07:01:40;21.90;99.90
16392;DHT22;8305;-33.882;151.134;2022-10-22T07:04:11;21.80;99.90
16392;DHT22;8305;-33.882;151.134;2022-10-22T07:06:44;21.80;99.90
16392;DHT22;8305;-33.882;151.134;2022-10-22T07:09:14;21.70;99.90
16392;DHT22;8305;-33.882;151.134;2022-10-22T07:11:46;21.70;99.90
16392;DHT22;8305;-33.882;151.134;2022-10-22T07:14:17;21.70;99.90
16392;DHT22;8305;-33.882;151.134;2022-10-22T07:16:47;21.70;99.90
16392;DHT22;8305;-33.882;151.134;2022-10-22T07:19:18;21.60;99.90
16392;DHT22;8305;-33.882;151.134;2022-10-22T07:21:51;21.60;99.90
16392;DHT22;8305;-33.882;151.134;2022-10-22T07:24:21;21.60;99.90
16392;DHT22;8305;-33.882;151.134;2022-10-22T07:26:52;21.50;99.90
16392;DHT22;8305;-33.882;151.134;2022-10-22T07:29:23;21.50;99.90
16392;DHT22;8305;-33.882;151.134;2022-10-22T07:34:59;21.50;99.90
16392;DHT22;8305;-33.882;151.134;2022-10-22T07:37:33;21.40;99.90
16392;DHT22;8305;-33.882;151.134;2022-10-22T07:40:04;21.40;99.90
16392;DHT22;8305;-33.882;151.134;2022-10-22T07:42:35;21.30;99.90
16392;DHT22;8305;-33.882;151.134;2022-10-22T07:45:07;21.30;99.90
16392;DHT22;8305;-33.882;151.134;2022-10-22T07:47:38;21.30;99.90
16392;DHT22;8305;-33.882;151.134;2022-10-22T07:50:09;21.20;99.90
16392;DHT22;8305;-33.882;151.134;2022-10-22T07:52:42;21.20;99.90
16392;DHT22;8305;-33.882;151.134;2022-10-22T07:55:14;21.20;99.90
16392;DHT22;8305;-33.882;151.134;2022-10-22T07:57:49;21.10;99.90
16392;DHT22;8305;-33.882;151.134;2022-10-22T08:00:20;21.10;99.90
16392;DHT22;8305;-33.882;151.134;2022-10-22T08:02:51;21.00;99.90
16392;DHT22;8305;-33.882;151.134;2022-10-22T08:05:22;21.00;99.90
16392;DHT22;8305;-33.882;151.134;2022-10-22T08:07:54;21.00;99.90
16392;DHT22;8305;-33.882;151.134;2022-10-22T08:10:25;20.90;99.90
16392;DHT22;8305;-33.882;151.134;2022-10-22T08:12:56;20.90;99.90
16392;DHT22;8305;-33.882;151.134;2022-10-22T08:15:27;20.90;99.90
16392;DHT22;8305;-33.882;151.134;2022-10-22T08:17:58;20.80;99.90
16392;DHT22;8305;-33.882;151.134;2022-10-22T08:20:29;20.80;99.90
16392;DHT22;8305;-33.882;151.134;2022-10-22T08:23:01;20.70;99.90
16392;DHT22;8305;-33.882;151.134;2022-10-22T08:25:32;20.70;99.90
16392;DHT22;8305;-33.882;151.134;2022-10-22T08:28:03;20.60;99.90
16392;DHT22;8305;-33.882;151.134;2022-10-22T08:30:34;20.60;99.90
16392;DHT22;8305;-33.882;151.134;2022-10-22T08:33:05;20.60;99.90
16392;DHT22;8305;-33.882;151.134;2022-10-22T08:35:36;20.60;99.90
16392;DHT22;8305;-33.882;151.134;2022-10-22T08:38:09;20.60;99.90
16392;DHT22;8305;-33.882;151.134;2022-10-22T08:40:41;20.50;99.90
16392;DHT22;8305;-33.882;151.134;2022-10-22T08:46:28;20.50;99.90
16392;DHT22;8305;-33.882;151.134;2022-10-22T08:49:02;20.50;99.90
16392;DHT22;8305;-33.882;151.134;2022-10-22T08:51:36;20.50;99.90
16392;DHT22;8305;-33.882;151.134;2022-10-22T08:54:21;20.50;99.90
16392;DHT22;8305;-33.882;151.134;2022-10-22T08:57:12;20.40;99.90
16392;DHT22;8305;-33.882;151.134;2022-10-22T08:59:49;20.40;99.90
16392;DHT22;8305;-33.882;151.134;2022-10-22T09:02:33;20.30;99.90
16392;DHT22;8305;-33.882;151.134;2022-10-22T09:05:18;20.30;99.90
16392;DHT22;8305;-33.882;151.134;2022-10-22T09:07:52;20.30;99.90
16392;DHT22;8305;-33.882;151.134;2022-10-22T09:10:28;20.20;99.90
16392;DHT22;8305;-33.882;151.134;2022-10-22T09:13:01;20.20;99.90
16392;DHT22;8305;-33.882;151.134;2022-10-22T09:15:31;20.20;99.90
16392;DHT22;8305;-33.882;151.134;2022-10-22T09:18:15;20.20;99.90
16392;DHT22;8305;-33.882;151.134;2022-10-22T09:20:52;20.10;99.90
16392;DHT22;8305;-33.882;151.134;2022-10-22T09:23:30;20.10;99.90
16392;DHT22;8305;-33.882;151.134;2022-10-22T09:26:11;20.10;99.90
16392;DHT22;8305;-33.882;151.134;2022-10-22T09:28:47;20.10;99.90
16392;DHT22;8305;-33.882;151.134;2022-10-22T09:31:18;20.10;99.90
16392;DHT22;8305;-33.882;151.134;2022-10-22T09:33:51;20.10;99.90
16392;DHT22;8305;-33.882;151.134;2022-10-22T09:36:23;20.10;99.90
16392;DHT22;8305;-33.882;151.134;2022-10-22T09:38:54;20.00;99.90
16392;DHT22;8305;-33.882;151.134;2022-10-22T09:41:28;20.00;99.90
16392;DHT22;8305;-33.882;151.134;2022-10-22T09:44:02;20.00;99.90
16392;DHT22;8305;-33.882;151.134;2022-10-22T09:46:38;20.00;99.90
16392;DHT22;8305;-33.882;151.134;2022-10-22T09:49:13;20.00;99.90
16392;DHT22;8305;-33.882;151.134;2022-10-22T09:51:54;20.00;99.90
16392;DHT22;8305;-33.882;151.134;2022-10-22T09:54:26;20.00;99.90
16392;DHT22;8305;-33.882;151.134;2022-10-22T09:57:14;20.00;99.90
16392;DHT22;8305;-33.882;151.134;2022-10-22T09:59:49;20.00;99.90
16392;DHT22;8305;-33.882;151.134;2022-10-22T10:02:22;20.00;99.90
16392;DHT22;8305;-33.882;151.134;2022-10-22T10:04:54;20.00;99.90
16392;DHT22;8305;-33.882;151.134;2022-10-22T10:07:29;20.00;99.90
16392;DHT22;8305;-33.882;151.134;2022-10-22T10:10:00;20.00;99.90
16392;DHT22;8305;-33.882;151.134;2022-10-22T10:12:39;20.00;99.90
16392;DHT22;8305;-33.882;151.134;2022-10-22T10:15:19;20.00;99.90
16392;DHT22;8305;-33.882;151.134;2022-10-22T10:17:56;20.00;99.90
16392;DHT22;8305;-33.882;151.134;2022-10-22T10:20:36;20.00;99.90
16392;DHT22;8305;-33.882;151.134;2022-10-22T10:23:17;20.00;99.90
16392;DHT22;8305;-33.882;151.134;2022-10-22T10:25:56;20.00;99.90
16392;DHT22;8305;-33.882;151.134;2022-10-22T10:28:43;20.00;99.90
16392;DHT22;8305;-33.882;151.134;2022-10-22T10:31:23;20.00;99.90
16392;DHT22;8305;-33.882;151.134;2022-10-22T10:34:04;19.90;99.90
16392;DHT22;8305;-33.882;151.134;2022-10-22T10:36:42;20.00;99.90
16392;DHT22;8305;-33.882;151.134;2022-10-22T10:39:20;20.00;99.90
16392;DHT22;8305;-33.882;151.134;2022-10-22T10:41:57;20.00;99.90
16392;DHT22;8305;-33.882;151.134;2022-10-22T10:44:54;20.00;99.90
16392;DHT22;8305;-33.882;151.134;2022-10-22T10:47:44;20.00;99.90
16392;DHT22;8305;-33.882;151.134;2022-10-22T10:50:25;20.00;99.90
16392;DHT22;8305;-33.882;151.134;2022-10-22T10:53:06;20.00;99.90
16392;DHT22;8305;-33.882;151.134;2022-10-22T10:55:47;19.90;99.90
16392;DHT22;8305;-33.882;151.134;2022-10-22T10:58:27;19.90;99.90
16392;DHT22;8305;-33.882;151.134;2022-10-22T11:01:06;19.90;99.90
16392;DHT22;8305;-33.882;151.134;2022-10-22T11:03:59;19.90;99.90
16392;DHT22;8305;-33.882;151.134;2022-10-22T11:06:37;19.90;99.90
16392;DHT22;8305;-33.882;151.134;2022-10-22T11:09:17;19.90;99.90
16392;DHT22;8305;-33.882;151.134;2022-10-22T11:11:52;19.90;99.90
16392;DHT22;8305;-33.882;151.134;2022-10-22T11:14:29;19.90;99.90
16392;DHT22;8305;-33.882;151.134;2022-10-22T11:17:05;19.80;99.90
16392;DHT22;8305;-33.882;151.134;2022-10-22T11:19:43;19.90;99.90
16392;DHT22;8305;-33.882;151.134;2022-10-22T11:22:19;19.90;99.90
16392;DHT22;8305;-33.882;151.134;2022-10-22T11:24:58;19.90;99.90
16392;DHT22;8305;-33.882;151.134;2022-10-22T11:27:35;19.90;99.90
16392;DHT22;8305;-33.882;151.134;2022-10-22T11:30:14;19.90;99.90
16392;DHT22;8305;-33.882;151.134;2022-10-22T11:32:48;19.90;99.90
16392;DHT22;8305;-33.882;151.134;2022-10-22T11:35:23;19.90;99.90
16392;DHT22;8305;-33.882;151.134;2022-10-22T11:37:56;19.90;99.90
16392;DHT22;8305;-33.882;151.134;2022-10-22T11:40:34;19.80;99.90
16392;DHT22;8305;-33.882;151.134;2022-10-22T11:43:06;19.80;99.90
16392;DHT22;8305;-33.882;151.134;2022-10-22T11:45:38;19.80;99.90
16392;DHT22;8305;-33.882;151.134;2022-10-22T11:48:16;19.80;99.90
16392;DHT22;8305;-33.882;151.134;2022-10-22T11:50:49;19.80;99.90
16392;DHT22;8305;-33.882;151.134;2022-10-22T11:53:29;19.80;99.90
16392;DHT22;8305;-33.882;151.134;2022-10-22T11:58:49;19.80;99.90
16392;DHT22;8305;-33.882;151.134;2022-10-22T12:01:24;19.80;99.90
16392;DHT22;8305;-33.882;151.134;2022-10-22T12:04:21;19.80;99.90
16392;DHT22;8305;-33.882;151.134;2022-10-22T12:06:55;19.80;99.90
16392;DHT22;8305;-33.882;151.134;2022-10-22T12:09:26;19.80;99.90
16392;DHT22;8305;-33.882;151.134;2022-10-22T12:12:13;19.70;99.90
16392;DHT22;8305;-33.882;151.134;2022-10-22T12:14:55;19.70;99.90
16392;DHT22;8305;-33.882;151.134;2022-10-22T12:17:26;19.70;99.90
16392;DHT22;8305;-33.882;151.134;2022-10-22T12:20:06;19.70;99.90
16392;DHT22;8305;-33.882;151.134;2022-10-22T12:22:38;19.70;99.90
16392;DHT22;8305;-33.882;151.134;2022-10-22T12:25:16;19.70;99.90
16392;DHT22;8305;-33.882;151.134;2022-10-22T12:27:51;19.70;99.90
16392;DHT22;8305;-33.882;151.134;2022-10-22T12:30:25;19.70;99.90
16392;DHT22;8305;-33.882;151.134;2022-10-22T12:32:57;19.70;99.90
16392;DHT22;8305;-33.882;151.134;2022-10-22T12:35:32;19.70;99.90
16392;DHT22;8305;-33.882;151.134;2022-10-22T12:38:06;19.70;99.90
16392;DHT22;8305;-33.882;151.134;2022-10-22T12:40:41;19.70;99.90
16392;DHT22;8305;-33.882;151.134;2022-10-22T12:43:13;19.70;99.90
16392;DHT22;8305;-33.882;151.134;2022-10-22T12:45:45;19.70;99.90
16392;DHT22;8305;-33.882;151.134;2022-10-22T12:48:17;19.70;99.90
16392;DHT22;8305;-33.882;151.134;2022-10-22T12:50:52;19.70;99.90
16392;DHT22;8305;-33.882;151.134;2022-10-22T12:53:26;19.70;99.90
16392;DHT22;8305;-33.882;151.134;2022-10-22T12:55:59;19.70;99.90
16392;DHT22;8305;-33.882;151.134;2022-10-22T12:58:35;19.70;99.90
16392;DHT22;8305;-33.882;151.134;2022-10-22T13:01:08;19.70;99.90
16392;DHT22;8305;-33.882;151.134;2022-10-22T13:03:42;19.80;99.90
16392;DHT22;8305;-33.882;151.134;2022-10-22T13:06:24;19.80;99.90
16392;DHT22;8305;-33.882;151.134;2022-10-22T13:09:11;19.80;99.90
16392;DHT22;8305;-33.882;151.134;2022-10-22T13:11:49;19.80;99.90
16392;DHT22;8305;-33.882;151.134;2022-10-22T13:14:28;19.80;99.90
16392;DHT22;8305;-33.882;151.134;2022-10-22T13:17:10;19.80;99.90
16392;DHT22;8305;-33.882;151.134;2022-10-22T13:19:46;19.80;99.90
16392;DHT22;8305;-33.882;151.134;2022-10-22T13:22:33;19.80;99.90
16392;DHT22;8305;-33.882;151.134;2022-10-22T13:25:22;19.80;99.90
16392;DHT22;8305;-33.882;151.134;2022-10-22T13:27:55;19.80;99.90
16392;DHT22;8305;-33.882;151.134;2022-10-22T13:30:27;19.80;99.90
16392;DHT22;8305;-33.882;151.134;2022-10-22T13:32:59;19.80;99.90
16392;DHT22;8305;-33.882;151.134;2022-10-22T13:35:32;19.80;99.90
16392;DHT22;8305;-33.882;151.134;2022-10-22T13:38:12;19.80;99.90
16392;DHT22;8305;-33.882;151.134;2022-10-22T13:40:45;19.80;99.90
16392;DHT22;8305;-33.882;151.134;2022-10-22T13:43:16;19.80;99.90
16392;DHT22;8305;-33.882;151.134;2022-10-22T13:45:49;19.80;99.90
16392;DHT22;8305;-33.882;151.134;2022-10-22T13:48:23;19.80;99.90
16392;DHT22;8305;-33.882;151.134;2022-10-22T13:50:55;19.80;99.90
16392;DHT22;8305;-33.882;151.134;2022-10-22T13:53:29;19.80;99.90
16392;DHT22;8305;-33.882;151.134;2022-10-22T13:56:01;19.80;99.90
16392;DHT22;8305;-33.882;151.134;2022-10-22T13:58:32;19.80;99.90
16392;DHT22;8305;-33.882;151.134;2022-10-22T14:01:03;19.80;99.90
16392;DHT22;8305;-33.882;151.134;2022-10-22T14:03:38;19.80;99.90
16392;DHT22;8305;-33.882;151.134;2022-10-22T14:06:12;19.70;99.90
16392;DHT22;8305;-33.882;151.134;2022-10-22T14:08:47;19.70;99.90
16392;DHT22;8305;-33.882;151.134;2022-10-22T14:11:20;19.70;99.90
16392;DHT22;8305;-33.882;151.134;2022-10-22T14:13:51;19.70;99.90
16392;DHT22;8305;-33.882;151.134;2022-10-22T14:16:23;19.70;99.90
16392;DHT22;8305;-33.882;151.134;2022-10-22T14:18:56;19.70;99.90
16392;DHT22;8305;-33.882;151.134;2022-10-22T14:21:29;19.70;99.90
16392;DHT22;8305;-33.882;151.134;2022-10-22T14:24:04;19.60;99.90
16392;DHT22;8305;-33.882;151.134;2022-10-22T14:26:35;19.70;99.90
16392;DHT22;8305;-33.882;151.134;2022-10-22T14:29:06;19.70;99.90
16392;DHT22;8305;-33.882;151.134;2022-10-22T14:31:37;19.70;99.90
16392;DHT22;8305;-33.882;151.134;2022-10-22T14:34:10;19.60;99.90
16392;DHT22;8305;-33.882;151.134;2022-10-22T14:36:41;19.60;99.90
16392;DHT22;8305;-33.882;151.134;2022-10-22T14:39:17;19.60;99.90
16392;DHT22;8305;-33.882;151.134;2022-10-22T14:41:48;19.60;99.90
16392;DHT22;8305;-33.882;151.134;2022-10-22T14:44:19;19.60;99.90
16392;DHT22;8305;-33.882;151.134;2022-10-22T14:46:50;19.60;99.90
16392;DHT22;8305;-33.882;151.134;2022-10-22T14:49:23;19.60;99.90
16392;DHT22;8305;-33.882;151.134;2022-10-22T14:51:53;19.60;99.90
16392;DHT22;8305;-33.882;151.134;2022-10-22T14:54:26;19.60;99.90
16392;DHT22;8305;-33.882;151.134;2022-10-22T14:56:57;19.60;99.90
16392;DHT22;8305;-33.882;151.134;2022-10-22T14:59:28;19.60;99.90
16392;DHT22;8305;-33.882;151.134;2022-10-22T15:01:58;19.60;99.90
16392;DHT22;8305;-33.882;151.134;2022-10-22T15:04:29;19.60;99.90
16392;DHT22;8305;-33.882;151.134;2022-10-22T15:07:00;19.60;99.90
16392;DHT22;8305;-33.882;151.134;2022-10-22T15:09:32;19.60;99.90
16392;DHT22;8305;-33.882;151.134;2022-10-22T15:12:03;19.50;99.90
16392;DHT22;8305;-33.882;151.134;2022-10-22T15:14:34;19.60;99.90
16392;DHT22;8305;-33.882;151.134;2022-10-22T15:17:05;19.50;99.90
16392;DHT22;8305;-33.882;151.134;2022-10-22T15:19:35;19.50;99.90
16392;DHT22;8305;-33.882;151.134;2022-10-22T15:22:06;19.50;99.90
16392;DHT22;8305;-33.882;151.134;2022-10-22T15:24:39;19.50;99.90
16392;DHT22;8305;-33.882;151.134;2022-10-22T15:27:11;19.50;99.90
16392;DHT22;8305;-33.882;151.134;2022-10-22T15:29:42;19.40;99.90
16392;DHT22;8305;-33.882;151.134;2022-10-22T15:32:13;19.40;99.90
16392;DHT22;8305;-33.882;151.134;2022-10-22T15:34:44;19.40;99.90
16392;DHT22;8305;-33.882;151.134;2022-10-22T15:37:15;19.40;99.90
16392;DHT22;8305;-33.882;151.134;2022-10-22T15:39:47;19.40;99.90
16392;DHT22;8305;-33.882;151.134;2022-10-22T15:42:18;19.40;99.90
16392;DHT22;8305;-33.882;151.134;2022-10-22T15:44:50;19.40;99.90
16392;DHT22;8305;-33.882;151.134;2022-10-22T15:47:26;19.40;99.90
16392;DHT22;8305;-33.882;151.134;2022-10-22T15:49:58;19.30;99.90
16392;DHT22;8305;-33.882;151.134;2022-10-22T15:52:28;19.30;99.90